createdAt,value
2022-07-30T00:00:31.301Z,21.69
2022-07-30T00:03:05.610Z,21.70
2022-07-30T00:05:33.773Z,21.69
2022-07-30T00:08:01.942Z,21.69
2022-07-30T00:10:30.319Z,21.68
2022-07-30T00:12:58.520Z,21.68
2022-07-30T00:15:26.873Z,21.69
2022-07-30T00:17:56.070Z,21.70
2022-07-30T00:20:27.958Z,21.72
2022-07-30T00:22:57.129Z,21.73
2022-07-30T00:25:25.508Z,21.72
2022-07-30T00:27:53.681Z,21.70
2022-07-30T00:30:22.097Z,21.67
2022-07-30T00:32:50.884Z,21.64
2022-07-30T00:35:19.135Z,21.61
2022-07-30T00:37:47.505Z,21.58
2022-07-30T00:40:16.399Z,21.54
2022-07-30T00:42:47.338Z,21.49
2022-07-30T00:45:17.560Z,21.45
2022-07-30T00:47:46.558Z,21.41
2022-07-30T00:50:15.854Z,21.38
2022-07-30T00:52:45.157Z,21.38
2022-07-30T00:55:15.607Z,21.36
2022-07-30T00:57:44.509Z,21.35
2022-07-30T01:00:16.014Z,21.34
2022-07-30T01:02:44.303Z,21.34
2022-07-30T01:05:13.296Z,21.33
2022-07-30T01:07:42.290Z,21.33
2022-07-30T01:10:13.268Z,21.32
2022-07-30T01:12:42.524Z,21.32
2022-07-30T01:15:11.792Z,21.31
2022-07-30T01:17:41.022Z,21.31
2022-07-30T01:20:13.602Z,21.31
2022-07-30T01:23:12.704Z,21.31
2022-07-30T01:25:48.964Z,21.32
2022-07-30T01:28:22.773Z,21.33
2022-07-30T01:30:52.635Z,21.33
2022-07-30T01:33:23.424Z,21.34
2022-07-30T01:35:53.115Z,21.33
2022-07-30T01:38:23.243Z,21.33
2022-07-30T01:40:53.476Z,21.33
2022-07-30T01:43:24.416Z,21.33
2022-07-30T01:45:53.954Z,21.32
2022-07-30T01:48:25.952Z,21.29
2022-07-30T01:50:58.502Z,21.27
2022-07-30T01:53:31.756Z,21.25
2022-07-30T01:56:03.209Z,21.20
2022-07-30T01:58:36.909Z,21.17
2022-07-30T02:01:14.604Z,21.15
2022-07-30T02:03:44.154Z,21.12
2022-07-30T02:06:26.678Z,21.08
2022-07-30T02:08:58.375Z,21.06
2022-07-30T02:11:46.006Z,21.03
2022-07-30T02:14:26.574Z,20.99
2022-07-30T02:16:58.408Z,20.96
2022-07-30T02:19:34.353Z,20.95
2022-07-30T02:22:11.374Z,20.93
2022-07-30T02:24:43.134Z,20.92
2022-07-30T02:27:26.613Z,20.91
2022-07-30T02:29:57.810Z,20.91
2022-07-30T02:32:29.702Z,20.90
2022-07-30T02:35:05.556Z,20.91
2022-07-30T02:37:43.352Z,20.91
2022-07-30T02:40:18.286Z,20.92
2022-07-30T02:42:49.725Z,20.93
2022-07-30T02:45:23.970Z,20.93
2022-07-30T02:47:57.831Z,20.95
2022-07-30T02:50:28.256Z,20.94
2022-07-30T02:52:59.627Z,20.94
2022-07-30T02:55:30.463Z,20.95
2022-07-30T02:58:00.798Z,20.95
2022-07-30T03:00:31.046Z,20.95
2022-07-30T03:03:01.884Z,20.94
2022-07-30T03:05:31.233Z,20.94
2022-07-30T03:08:01.757Z,20.93
2022-07-30T03:10:32.143Z,20.92
2022-07-30T03:13:01.801Z,20.90
2022-07-30T03:15:31.036Z,20.87
2022-07-30T03:18:01.732Z,20.85
2022-07-30T03:20:32.695Z,20.83
2022-07-30T03:23:03.499Z,20.83
2022-07-30T03:25:33.106Z,20.83
2022-07-30T03:28:06.509Z,20.84
2022-07-30T03:30:34.882Z,20.84
2022-07-30T03:33:05.629Z,20.81
2022-07-30T03:35:34.199Z,20.80
2022-07-30T03:38:03.110Z,20.77
2022-07-30T03:40:32.807Z,20.75
2022-07-30T03:43:01.618Z,20.72
2022-07-30T03:45:31.205Z,20.70
2022-07-30T03:48:07.945Z,20.69
2022-07-30T03:50:38.140Z,20.68
2022-07-30T03:53:07.567Z,20.68
2022-07-30T03:55:41.262Z,20.69
2022-07-30T03:58:35.886Z,20.71
2022-07-30T04:01:06.221Z,20.73
2022-07-30T04:03:34.881Z,20.75
2022-07-30T04:06:06.053Z,20.78
2022-07-30T04:08:34.538Z,20.82
2022-07-30T04:11:04.150Z,20.85
2022-07-30T04:14:00.291Z,20.87
2022-07-30T04:16:42.157Z,20.91
2022-07-30T04:19:19.834Z,20.97
2022-07-30T04:21:50.995Z,21.04
2022-07-30T04:24:20.511Z,21.12
2022-07-30T04:26:50.382Z,21.20
2022-07-30T04:29:24.133Z,21.31
2022-07-30T04:31:56.634Z,21.42
2022-07-30T04:34:34.206Z,21.51
2022-07-30T04:37:03.522Z,21.60
2022-07-30T04:39:31.880Z,21.69
2022-07-30T04:41:59.854Z,21.77
2022-07-30T04:44:31.248Z,21.85
2022-07-30T04:47:18.728Z,21.91
2022-07-30T04:49:58.191Z,21.94
2022-07-30T04:52:27.036Z,21.96
2022-07-30T04:54:58.242Z,21.97
2022-07-30T04:57:28.706Z,21.99
2022-07-30T04:59:58.848Z,22.00
2022-07-30T05:02:30.964Z,22.01
2022-07-30T05:05:00.758Z,22.02
2022-07-30T05:07:30.544Z,22.04
2022-07-30T05:09:59.750Z,22.07
2022-07-30T05:12:35.289Z,22.10
2022-07-30T05:15:08.359Z,22.14
2022-07-30T05:17:38.012Z,22.17
2022-07-30T05:20:08.444Z,22.19
2022-07-30T05:23:06.181Z,22.22
2022-07-30T05:25:34.560Z,22.25
2022-07-30T05:28:14.101Z,22.27
2022-07-30T05:30:43.448Z,22.31
2022-07-30T05:33:16.070Z,22.35
2022-07-30T05:35:44.872Z,22.41
2022-07-30T05:38:13.583Z,22.47
2022-07-30T05:41:30.748Z,22.56
2022-07-30T05:44:09.913Z,22.65
2022-07-30T05:46:38.850Z,22.74
2022-07-30T05:49:07.105Z,22.82
2022-07-30T05:51:35.177Z,22.90
2022-07-30T05:54:03.169Z,22.95
2022-07-30T05:56:51.575Z,23.02
2022-07-30T05:59:30.311Z,23.08
2022-07-30T06:02:03.471Z,23.13
2022-07-30T06:04:50.040Z,23.19
2022-07-30T06:07:18.468Z,23.26
2022-07-30T06:09:46.976Z,23.34
2022-07-30T06:12:15.252Z,23.41
2022-07-30T06:14:43.907Z,23.47
2022-07-30T06:17:15.315Z,23.50
2022-07-30T06:20:02.071Z,23.52
2022-07-30T06:22:32.942Z,23.55
2022-07-30T06:25:04.360Z,23.56
2022-07-30T06:27:37.844Z,23.58
2022-07-30T06:30:10.059Z,23.60
2022-07-30T06:32:38.298Z,23.60
2022-07-30T06:35:08.009Z,23.62
2022-07-30T06:38:05.973Z,23.64
2022-07-30T06:40:26.065Z,23.66
2022-07-30T06:43:15.109Z,23.68
2022-07-30T06:45:56.765Z,23.68
2022-07-30T06:48:30.943Z,23.70
2022-07-30T06:51:00.132Z,23.73
2022-07-30T06:53:28.927Z,23.78
2022-07-30T06:56:15.534Z,23.85
2022-07-30T06:58:47.965Z,23.94
2022-07-30T07:01:34.680Z,24.04
2022-07-30T07:04:03.872Z,24.12
2022-07-30T07:06:32.228Z,24.20
2022-07-30T07:09:01.606Z,24.26
2022-07-30T07:11:35.804Z,24.34
2022-07-30T07:14:08.212Z,24.42
2022-07-30T07:16:36.602Z,24.49
2022-07-30T07:20:00.931Z,24.57
2022-07-30T07:22:19.598Z,24.67
2022-07-30T07:24:47.774Z,24.77
2022-07-30T07:27:23.672Z,24.86
2022-07-30T07:30:01.733Z,24.92
2022-07-30T07:32:36.572Z,24.95
2022-07-30T07:35:06.054Z,24.97
2022-07-30T07:37:35.677Z,24.98
2022-07-30T07:40:04.656Z,24.99
2022-07-30T07:42:34.892Z,25.04
2022-07-30T07:45:03.783Z,25.11
2022-07-30T07:47:55.437Z,25.17
2022-07-30T07:50:46.727Z,25.25
2022-07-30T07:53:27.088Z,25.33
2022-07-30T07:55:55.383Z,25.40
2022-07-30T07:58:26.849Z,25.47
2022-07-30T08:00:58.537Z,25.54
2022-07-30T08:03:36.573Z,25.61
2022-07-30T08:06:15.379Z,25.68
2022-07-30T08:09:09.478Z,25.74
2022-07-30T08:12:00.590Z,25.77
2022-07-30T08:14:49.448Z,25.76
2022-07-30T08:17:44.972Z,25.78
2022-07-30T08:20:22.768Z,25.82
2022-07-30T08:22:51.657Z,25.83
2022-07-30T08:25:22.359Z,25.86
2022-07-30T08:27:53.250Z,25.91
2022-07-30T08:30:22.237Z,25.97
2022-07-30T08:32:50.908Z,26.04
2022-07-30T08:35:20.008Z,26.11
2022-07-30T08:37:48.282Z,26.19
2022-07-30T08:40:20.516Z,26.28
2022-07-30T08:42:54.004Z,26.37
2022-07-30T08:45:34.560Z,26.45
2022-07-30T08:48:27.146Z,26.56
2022-07-30T08:50:58.000Z,26.65
2022-07-30T08:54:01.735Z,26.74
2022-07-30T08:56:32.553Z,26.79
2022-07-30T08:59:02.154Z,26.83
2022-07-30T09:01:30.218Z,26.89
2022-07-30T09:03:58.451Z,26.93
2022-07-30T09:06:28.617Z,27.01
2022-07-30T09:08:56.895Z,27.08
2022-07-30T09:11:25.063Z,27.16
2022-07-30T09:13:53.342Z,27.20
2022-07-30T09:16:25.815Z,27.09
2022-07-30T09:18:57.267Z,27.18
2022-07-30T09:21:29.284Z,27.23
2022-07-30T09:24:14.618Z,27.24
2022-07-30T09:27:07.569Z,27.28
2022-07-30T09:29:59.406Z,27.37
2022-07-30T09:32:49.375Z,27.46
2022-07-30T09:35:36.398Z,27.55
2022-07-30T09:38:11.534Z,27.62
2022-07-30T09:40:57.774Z,27.66
2022-07-30T09:43:52.976Z,27.75
2022-07-30T09:46:45.468Z,27.86
2022-07-30T09:49:21.179Z,27.99
2022-07-30T09:51:55.945Z,28.10
2022-07-30T09:54:51.265Z,28.22
2022-07-30T09:57:25.808Z,28.32
2022-07-30T10:00:01.821Z,28.36
2022-07-30T10:02:33.071Z,28.52
2022-07-30T10:05:21.247Z,28.60
2022-07-30T10:07:56.792Z,28.69
2022-07-30T10:10:28.402Z,28.80
2022-07-30T10:13:04.608Z,28.92
2022-07-30T10:15:36.156Z,28.92
2022-07-30T10:18:06.638Z,28.89
2022-07-30T10:20:54.216Z,28.88
2022-07-30T10:23:44.418Z,28.93
2022-07-30T10:26:37.463Z,28.98
2022-07-30T10:29:23.884Z,29.06
2022-07-30T10:32:02.687Z,29.07
2022-07-30T10:34:34.406Z,29.20
2022-07-30T10:37:06.649Z,29.33
2022-07-30T10:39:39.710Z,29.41
2022-07-30T10:42:26.211Z,29.51
2022-07-30T10:45:17.685Z,29.67
2022-07-30T10:47:56.202Z,29.82
2022-07-30T10:50:29.234Z,29.91
2022-07-30T10:53:01.909Z,29.97
2022-07-30T10:55:38.838Z,30.05
2022-07-30T10:58:15.515Z,30.22
2022-07-30T11:00:52.143Z,30.37
2022-07-30T11:03:23.591Z,30.53
2022-07-30T11:06:15.471Z,30.64
2022-07-30T11:08:45.568Z,30.68
2022-07-30T11:11:28.652Z,30.69
2022-07-30T11:14:10.310Z,30.79
2022-07-30T11:16:42.331Z,30.96
2022-07-30T11:19:55.708Z,31.03
2022-07-30T11:22:40.820Z,31.01
2022-07-30T11:25:50.428Z,30.91
2022-07-30T11:28:38.408Z,31.06
2022-07-30T11:31:54.747Z,31.28
2022-07-30T11:34:24.231Z,31.33
2022-07-30T11:37:03.039Z,31.43
2022-07-30T11:39:56.103Z,31.47
2022-07-30T11:42:25.705Z,31.61
2022-07-30T11:44:54.624Z,31.74
2022-07-30T11:47:28.304Z,31.87
2022-07-30T11:49:56.569Z,31.98
2022-07-30T11:52:24.746Z,32.03
2022-07-30T11:54:56.227Z,32.02
2022-07-30T11:57:40.715Z,31.96
2022-07-30T12:00:09.480Z,31.95
2022-07-30T12:02:43.325Z,31.93
2022-07-30T12:05:12.033Z,31.97
2022-07-30T12:07:40.349Z,32.08
2022-07-30T12:10:26.801Z,32.21
2022-07-30T12:13:16.955Z,32.27
2022-07-30T12:15:49.516Z,32.20
2022-07-30T12:18:29.171Z,32.14
2022-07-30T12:21:04.054Z,32.06
2022-07-30T12:23:32.366Z,31.94
2022-07-30T12:26:00.447Z,31.84
2022-07-30T12:28:30.577Z,31.75
2022-07-30T12:31:00.545Z,31.63
2022-07-30T12:33:28.722Z,31.48
2022-07-30T12:35:59.472Z,31.27
2022-07-30T12:38:29.084Z,31.17
2022-07-30T12:41:04.840Z,31.13
2022-07-30T12:44:02.402Z,31.05
2022-07-30T12:46:38.944Z,30.92
2022-07-30T12:49:19.966Z,30.87
2022-07-30T12:51:59.733Z,30.76
2022-07-30T12:54:29.785Z,30.62
2022-07-30T12:56:59.992Z,30.52
2022-07-30T12:59:29.534Z,30.46
2022-07-30T13:02:00.653Z,30.42
2022-07-30T13:04:30.163Z,30.34
2022-07-30T13:07:09.014Z,30.31
2022-07-30T13:09:38.286Z,30.30
2022-07-30T13:12:07.151Z,30.32
2022-07-30T13:14:35.249Z,30.35
2022-07-30T13:17:04.390Z,30.38
2022-07-30T13:19:33.030Z,30.39
2022-07-30T13:22:01.206Z,30.39
2022-07-30T13:24:29.376Z,30.36
2022-07-30T13:26:57.753Z,30.35
2022-07-30T13:29:26.341Z,30.32
2022-07-30T13:31:54.329Z,30.30
2022-07-30T13:34:22.587Z,30.32
2022-07-30T13:36:50.762Z,30.32
2022-07-30T13:39:18.806Z,30.36
2022-07-30T13:41:46.838Z,30.42
2022-07-30T13:44:14.922Z,30.48
2022-07-30T13:46:43.045Z,30.55
2022-07-30T13:49:11.304Z,30.63
2022-07-30T13:51:39.580Z,30.70
2022-07-30T13:54:08.079Z,30.76
2022-07-30T13:56:40.558Z,30.81
2022-07-30T13:59:09.592Z,30.86
2022-07-30T14:01:38.279Z,30.93
2022-07-30T14:04:06.459Z,30.99
2022-07-30T14:06:34.545Z,31.08
2022-07-30T14:09:03.679Z,31.18
2022-07-30T14:11:32.362Z,31.33
2022-07-30T14:14:00.646Z,31.49
2022-07-30T14:16:44.801Z,31.57
2022-07-30T14:19:23.379Z,31.65
2022-07-30T14:21:54.194Z,31.71
2022-07-30T14:24:23.281Z,31.74
2022-07-30T14:26:57.415Z,31.70
2022-07-30T14:29:27.787Z,31.71
2022-07-30T14:31:56.877Z,31.67
2022-07-30T14:34:25.174Z,31.62
2022-07-30T14:36:53.471Z,31.57
2022-07-30T14:39:21.828Z,31.49
2022-07-30T14:41:52.374Z,31.44
2022-07-30T14:44:24.105Z,31.37
2022-07-30T14:46:53.280Z,31.31
2022-07-30T14:49:22.665Z,31.28
2022-07-30T14:51:52.852Z,31.24
2022-07-30T14:54:21.301Z,31.19
2022-07-30T14:56:54.868Z,31.14
2022-07-30T14:59:27.820Z,31.10
2022-07-30T15:01:58.047Z,31.06
2022-07-30T15:04:26.074Z,31.02
2022-07-30T15:06:54.259Z,30.97
2022-07-30T15:09:22.420Z,30.94
2022-07-30T15:12:08.954Z,30.89
2022-07-30T15:14:40.175Z,30.82
2022-07-30T15:17:09.269Z,30.78
2022-07-30T15:19:37.588Z,30.73
2022-07-30T15:22:21.589Z,30.68
2022-07-30T15:24:49.904Z,30.63
2022-07-30T15:27:18.092Z,30.59
2022-07-30T15:29:46.216Z,30.54
2022-07-30T15:32:15.612Z,30.49
2022-07-30T15:34:44.609Z,30.42
2022-07-30T15:37:12.859Z,30.28
2022-07-30T15:39:41.168Z,30.11
2022-07-30T15:42:09.268Z,29.97
2022-07-30T15:44:42.264Z,29.81
2022-07-30T15:47:16.343Z,29.61
2022-07-30T15:49:44.929Z,29.46
2022-07-30T15:52:13.300Z,29.27
2022-07-30T15:54:41.261Z,28.98
2022-07-30T15:57:09.255Z,28.79
2022-07-30T15:59:37.409Z,28.67
2022-07-30T16:02:05.901Z,28.54
2022-07-30T16:04:34.474Z,28.45
2022-07-30T16:07:04.289Z,28.35
2022-07-30T16:09:32.465Z,28.23
2022-07-30T16:12:00.992Z,28.12
2022-07-30T16:14:29.731Z,28.01
2022-07-30T16:16:57.705Z,27.89
2022-07-30T16:19:27.002Z,27.77
2022-07-30T16:21:55.584Z,27.63
2022-07-30T16:24:23.766Z,27.39
2022-07-30T16:26:52.143Z,26.97
2022-07-30T16:29:20.335Z,26.80
2022-07-30T16:31:48.413Z,26.62
2022-07-30T16:34:17.889Z,26.41
2022-07-30T16:36:54.902Z,26.25
2022-07-30T16:39:23.043Z,26.05
2022-07-30T16:41:51.115Z,25.97
2022-07-30T16:44:19.290Z,25.77
2022-07-30T16:46:48.337Z,25.32
2022-07-30T16:49:16.812Z,25.25
2022-07-30T16:51:45.146Z,25.12
2022-07-30T16:54:13.419Z,25.13
2022-07-30T16:56:41.701Z,25.17
2022-07-30T16:59:13.712Z,25.21
2022-07-30T17:01:42.241Z,25.24
2022-07-30T17:04:10.279Z,25.23
2022-07-30T17:06:40.141Z,25.22
2022-07-30T17:09:08.404Z,25.21
2022-07-30T17:11:46.944Z,25.22
2022-07-30T17:14:22.453Z,25.24
2022-07-30T17:16:50.704Z,25.25
2022-07-30T17:19:19.229Z,25.26
2022-07-30T17:21:47.297Z,25.26
2022-07-30T17:24:15.475Z,25.26
2022-07-30T17:26:46.663Z,25.24
2022-07-30T17:29:16.032Z,25.20
2022-07-30T17:31:45.792Z,25.16
2022-07-30T17:34:20.161Z,25.11
2022-07-30T17:36:51.614Z,25.06
2022-07-30T17:40:19.712Z,25.01
2022-07-30T17:42:12.152Z,24.94
2022-07-30T17:44:42.695Z,24.87
2022-07-30T17:47:15.164Z,24.80
2022-07-30T17:49:44.824Z,24.73
2022-07-30T17:52:13.123Z,24.68
2022-07-30T17:54:41.485Z,24.63
2022-07-30T17:57:09.663Z,24.58
2022-07-30T17:59:38.467Z,24.53
2022-07-30T18:02:06.848Z,24.47
2022-07-30T18:04:36.055Z,24.39
2022-07-30T18:07:05.119Z,24.33
2022-07-30T18:09:39.536Z,24.25
2022-07-30T18:12:08.942Z,24.17
2022-07-30T18:14:37.636Z,24.07
2022-07-30T18:17:07.403Z,24.01
2022-07-30T18:19:37.357Z,23.95
2022-07-30T18:22:05.956Z,23.88
2022-07-30T18:24:40.306Z,23.78
2022-07-30T18:27:08.947Z,23.67
2022-07-30T18:29:37.120Z,23.56
2022-07-30T18:32:06.253Z,23.45
2022-07-30T18:34:35.106Z,23.35
2022-07-30T18:37:03.486Z,23.25
2022-07-30T18:39:31.764Z,23.19
2022-07-30T18:42:00.572Z,23.14
2022-07-30T18:44:29.337Z,23.10
2022-07-30T18:46:57.620Z,23.07
2022-07-30T18:49:41.105Z,23.05
2022-07-30T18:52:09.195Z,23.02
2022-07-30T18:54:38.066Z,22.99
2022-07-30T18:57:08.194Z,22.93
2022-07-30T18:59:39.786Z,22.85
2022-07-30T19:02:08.674Z,22.80
2022-07-30T19:04:36.787Z,22.76
2022-07-30T19:07:05.020Z,22.73
2022-07-30T19:09:33.410Z,22.71
2022-07-30T19:12:01.772Z,22.68
2022-07-30T19:14:30.264Z,22.67
2022-07-30T19:16:59.360Z,22.60
2022-07-30T19:19:28.656Z,22.53
2022-07-30T19:21:57.444Z,22.43
2022-07-30T19:24:25.621Z,22.39
2022-07-30T19:26:56.596Z,22.31
2022-07-30T19:29:24.668Z,22.24
2022-07-30T19:31:52.918Z,22.20
2022-07-30T19:34:21.011Z,22.16
2022-07-30T19:36:49.162Z,22.14
2022-07-30T19:39:21.189Z,22.13
2022-07-30T19:41:50.768Z,22.11
2022-07-30T19:44:19.513Z,22.07
2022-07-30T19:46:48.936Z,22.05
2022-07-30T19:49:21.728Z,21.99
2022-07-30T19:52:10.584Z,21.95
2022-07-30T19:54:38.547Z,21.92
2022-07-30T19:57:06.637Z,21.90
2022-07-30T19:59:46.118Z,21.89
2022-07-30T20:02:22.917Z,21.83
2022-07-30T20:04:52.014Z,21.80
2022-07-30T20:07:20.082Z,21.80
2022-07-30T20:09:49.166Z,21.81
2022-07-30T20:12:17.689Z,21.78
2022-07-30T20:14:45.860Z,21.73
2022-07-30T20:17:14.573Z,21.71
2022-07-30T20:19:48.160Z,21.72
2022-07-30T20:22:31.040Z,21.73
2022-07-30T20:25:00.147Z,21.73
2022-07-30T20:27:37.173Z,21.73
2022-07-30T20:30:09.080Z,21.75
2022-07-30T20:32:37.871Z,21.77
2022-07-30T20:35:10.654Z,21.81
2022-07-30T20:40:27.585Z,21.91
2022-07-30T20:42:55.732Z,21.95
2022-07-30T20:45:25.260Z,21.97
2022-07-30T20:47:56.833Z,21.97
2022-07-30T20:50:30.951Z,21.94
2022-07-30T20:52:59.741Z,21.92
2022-07-30T20:55:28.404Z,21.89
2022-07-30T20:58:07.897Z,21.86
2022-07-30T21:00:41.991Z,21.83
2022-07-30T21:03:22.211Z,21.78
2022-07-30T21:05:51.147Z,21.70
2022-07-30T21:08:25.241Z,21.61
2022-07-30T21:10:55.145Z,21.54
2022-07-30T21:13:25.399Z,21.48
2022-07-30T21:16:02.644Z,21.41
2022-07-30T21:18:32.806Z,21.35
2022-07-30T21:21:04.886Z,21.30
2022-07-30T21:23:34.236Z,21.25
2022-07-30T21:26:07.031Z,21.21
2022-07-30T21:28:39.075Z,21.17
2022-07-30T21:31:09.234Z,21.13
2022-07-30T21:33:37.784Z,21.11
2022-07-30T21:36:10.210Z,21.11
2022-07-30T21:38:42.717Z,21.12
2022-07-30T21:41:15.245Z,21.14
2022-07-30T21:43:45.042Z,21.16
2022-07-30T21:46:14.744Z,21.18
2022-07-30T21:48:45.753Z,21.15
2022-07-30T21:51:15.891Z,21.10
2022-07-30T21:56:32.616Z,21.17
2022-07-30T21:59:01.402Z,21.22
2022-07-30T22:01:33.106Z,21.28
2022-07-30T22:04:08.079Z,21.31
2022-07-30T22:06:39.677Z,21.36
2022-07-30T22:09:18.585Z,21.40
2022-07-30T22:11:55.609Z,21.43
2022-07-30T22:14:25.586Z,21.44
2022-07-30T22:16:54.052Z,21.43
2022-07-30T22:19:23.459Z,21.43
2022-07-30T22:21:54.102Z,21.43
2022-07-30T22:24:29.724Z,21.43
2022-07-30T22:27:01.295Z,21.42
2022-07-30T22:29:34.055Z,21.42
2022-07-30T22:34:52.935Z,21.41
2022-07-30T22:37:21.851Z,21.40
2022-07-30T22:39:51.085Z,21.38
2022-07-30T22:42:24.463Z,21.37
2022-07-30T22:44:54.762Z,21.39
2022-07-30T22:47:50.883Z,21.37
2022-07-30T22:50:14.824Z,21.33
2022-07-30T22:53:00.126Z,21.24
2022-07-30T22:55:33.944Z,21.20
2022-07-30T22:58:02.123Z,21.18
2022-07-30T23:00:30.501Z,21.17
2022-07-30T23:03:00.517Z,21.16
2022-07-30T23:05:30.354Z,21.14
2022-07-30T23:08:04.542Z,21.08
2022-07-30T23:10:32.725Z,21.07
2022-07-30T23:12:19.383Z,21.86
2022-07-30T23:12:28.905Z,21.42
2022-07-30T23:12:31.606Z,21.12
2022-07-30T23:13:00.961Z,21.06
2022-07-30T23:15:29.884Z,21.05
2022-07-30T23:17:57.955Z,21.01
2022-07-30T23:20:28.485Z,20.96
2022-07-30T23:22:56.809Z,20.91
2022-07-30T23:25:27.503Z,20.86
2022-07-30T23:28:07.153Z,20.82
2022-07-30T23:30:35.825Z,20.79
2022-07-30T23:33:04.126Z,20.75
2022-07-30T23:35:32.278Z,20.71
2022-07-30T23:38:00.474Z,20.66
2022-07-30T23:40:28.624Z,20.65
2022-07-30T23:42:56.903Z,20.62
2022-07-30T23:45:25.080Z,20.58
2022-07-30T23:48:02.754Z,20.55
2022-07-30T23:50:32.969Z,20.50
2022-07-30T23:53:02.294Z,20.48
2022-07-30T23:55:31.497Z,20.47
2022-07-30T23:58:00.560Z,20.46
